LNG Leo — V7BX2 — position and weather

sailwx.info

Track history (hours):
 
Tides and Currents Weather Stations Pressure Air Temp Water Temp Dewpoint Dewpoint Depression Visibility Wind Speed Wind Dir Waves Ship Positions

LNG Leo

Last reported at 2015-Jan-18 12:04 UTC. Time now 2015-May-28 06:05 UTC.
Position N 43°59' W 005°56'.
Warning: this ship's position is months out of date.

Type: Tanker. MMSI: 538001389.

Date/timePositionNaut miles runAvg speedWind from/ knotsBaromVisibWave heightAir tempDewpointWater temp
2015-Jan-18 12:04N 43°59' W 005°56'1011.3
2015-Jan-18 11:12N 43°60' W 006°10'14 0.6
2015-Jan-17 12:10N 43°56' W 005°52'7 8.5
2015-Jan-17 11:23N 43°56' W 005°43'9 8.4
2015-Jan-17 10:20N 43°56' W 005°31'6 8.1
2015-Jan-17 09:33N 43°57' W 005°22'8 8.2
2015-Jan-17 08:31N 43°57' W 005°10'20 4.0
2015-Jan-17 03:33N 44°00' W 005°37'1311.2
2015-Jan-17 02:24N 44°00' W 005°55'5 0.2
2015-Jan-16 04:23N 44°01' W 005°48'1 1.1
2015-Jan-16 03:32N 43°60' W 005°48'1410.8
2015-Jan-16 02:17N 43°60' W 006°07'  
2015-Jan-12 17:15N 43°56' W 005°18'6 9.3
2015-Jan-12 16:33N 43°52' W 005°10'4 3.5
2015-Jan-12 15:33N 43°50' W 005°14'1211.0
2015-Jan-12 14:25N 43°51' W 005°31'1010.9
2015-Jan-12 13:30N 43°52' W 005°45'1111.1
2015-Jan-12 12:32N 43°53' W 006°00'319 7.5
2015-Jan-10 18:13N 39°28' W 009°58'710.1
2015-Jan-10 17:33N 39°21' W 009°59'1010.3
2015-Jan-10 16:33N 39°11' W 009°59'1010.3
2015-Jan-10 15:33N 39°00' W 009°57'1010.3
2015-Jan-10 14:33N 38°50' W 009°56'1010.2
2015-Jan-10 13:32N 38°40' W 009°55'10 9.9
2015-Jan-10 12:32N 38°30' W 009°53'1010.0
2015-Jan-10 11:33N 38°21' W 009°50'10 9.8
2015-Jan-10 10:33N 38°11' W 009°47'1010.1
2015-Jan-10 09:33N 38°01' W 009°44'10 9.8
2015-Jan-10 08:33N 37°52' W 009°41'10 9.8
2015-Jan-10 07:32N 37°42' W 009°38'1010.0
2015-Jan-10 06:33N 37°32' W 009°36'1010.2
2015-Jan-10 05:33N 37°22' W 009°33'1010.3
2015-Jan-10 04:33N 37°12' W 009°30'58 9.4
2015-Jan-09 22:23N 36°32' W 008°39'15511.2
2015-Jan-09 08:31N 35°59' W 005°31'1111.0
2015-Jan-09 07:33N 36°01' W 005°18'  
Track history (hours):
 
Tides and Currents Weather Stations Pressure Air Temp Water Temp Dewpoint Dewpoint Depression Visibility Wind Speed Wind Dir Waves Ship Positions

LNG Leo

Last reported at 2015-Jan-18 12:04 UTC. Time now 2015-May-28 06:05 UTC.
Position N 43°59' W 005°56'.
Warning: this ship's position is months out of date.

Type: Tanker. MMSI: 538001389.

Date/timePositionNaut miles runAvg speedWind from/ knotsBaromVisibWave heightAir tempDewpointWater temp
2015-Jan-18 12:04N 43°59' W 005°56'1011.3
2015-Jan-18 11:12N 43°60' W 006°10'14 0.6
2015-Jan-17 12:10N 43°56' W 005°52'7 8.5
2015-Jan-17 11:23N 43°56' W 005°43'9 8.4
2015-Jan-17 10:20N 43°56' W 005°31'6 8.1
2015-Jan-17 09:33N 43°57' W 005°22'8 8.2
2015-Jan-17 08:31N 43°57' W 005°10'20 4.0
2015-Jan-17 03:33N 44°00' W 005°37'1311.2
2015-Jan-17 02:24N 44°00' W 005°55'5 0.2
2015-Jan-16 04:23N 44°01' W 005°48'1 1.1
2015-Jan-16 03:32N 43°60' W 005°48'1410.8
2015-Jan-16 02:17N 43°60' W 006°07'  
2015-Jan-12 17:15N 43°56' W 005°18'6 9.3
2015-Jan-12 16:33N 43°52' W 005°10'4 3.5
2015-Jan-12 15:33N 43°50' W 005°14'1211.0
2015-Jan-12 14:25N 43°51' W 005°31'1010.9
2015-Jan-12 13:30N 43°52' W 005°45'1111.1
2015-Jan-12 12:32N 43°53' W 006°00'319 7.5
2015-Jan-10 18:13N 39°28' W 009°58'710.1
2015-Jan-10 17:33N 39°21' W 009°59'1010.3
2015-Jan-10 16:33N 39°11' W 009°59'1010.3
2015-Jan-10 15:33N 39°00' W 009°57'1010.3
2015-Jan-10 14:33N 38°50' W 009°56'1010.2
2015-Jan-10 13:32N 38°40' W 009°55'10 9.9
2015-Jan-10 12:32N 38°30' W 009°53'1010.0
2015-Jan-10 11:33N 38°21' W 009°50'10 9.8
2015-Jan-10 10:33N 38°11' W 009°47'1010.1
2015-Jan-10 09:33N 38°01' W 009°44'10 9.8
2015-Jan-10 08:33N 37°52' W 009°41'10 9.8
2015-Jan-10 07:32N 37°42' W 009°38'1010.0
2015-Jan-10 06:33N 37°32' W 009°36'1010.2
2015-Jan-10 05:33N 37°22' W 009°33'1010.3
2015-Jan-10 04:33N 37°12' W 009°30'58 9.4
2015-Jan-09 22:23N 36°32' W 008°39'15511.2
2015-Jan-09 08:31N 35°59' W 005°31'1111.0
2015-Jan-09 07:33N 36°01' W 005°18'  

Dump ship's entire track history